createdAt,value
2023-05-19T00:00:27.777Z,19180.3574
2023-05-19T00:01:35.813Z,19180.2852
2023-05-19T00:02:44.112Z,19176.1426
2023-05-19T00:03:52.069Z,19181.2148
2023-05-19T00:05:00.145Z,19180.8574
2023-05-19T00:06:08.276Z,19179.1426
2023-05-19T00:07:16.238Z,19181.0723
2023-05-19T00:08:24.314Z,19177.6426
2023-05-19T00:09:32.389Z,19173.9277
2023-05-19T00:10:40.435Z,19177.1426
2023-05-19T00:11:48.664Z,19174.2148
2023-05-19T00:12:56.565Z,19178.7852
2023-05-19T00:14:04.472Z,19179.5723
2023-05-19T00:15:12.535Z,19185.5000
2023-05-19T00:16:20.648Z,19183.2852
2023-05-19T00:17:28.876Z,19182.5000
2023-05-19T00:18:36.868Z,19176.1426
2023-05-19T00:19:44.913Z,19177.7852
2023-05-19T00:20:52.959Z,19178.3574
2023-05-19T00:22:01.117Z,19177.2148
2023-05-19T00:23:09.238Z,19177.7852
2023-05-19T00:24:17.330Z,19179.8574
2023-05-19T00:25:25.301Z,19182.7148
2023-05-19T00:26:33.358Z,19183.6426
2023-05-19T00:27:41.421Z,19183.2852
2023-05-19T00:28:49.401Z,19178.9277
2023-05-19T00:29:57.470Z,19181.6426
2023-05-19T00:31:05.460Z,19185.3574
2023-05-19T00:32:13.745Z,19184.2148
2023-05-19T00:33:21.759Z,19181.0723
2023-05-19T00:34:29.905Z,19183.0723
2023-05-19T00:35:37.999Z,19182.0000
2023-05-19T00:36:45.922Z,19179.1426
2023-05-19T00:37:54.009Z,19176.7852
2023-05-19T00:39:02.086Z,19179.8574
2023-05-19T00:40:10.197Z,19177.9277
2023-05-19T00:41:18.189Z,19176.7148
2023-05-19T00:42:26.384Z,19182.2148
2023-05-19T00:43:34.205Z,19180.7148
2023-05-19T00:44:42.231Z,19179.7148
2023-05-19T00:45:50.377Z,19181.0723
2023-05-19T00:46:58.570Z,19180.0723
2023-05-19T00:48:06.643Z,19179.8574
2023-05-19T00:49:14.611Z,19179.2148
2023-05-19T00:50:22.722Z,19175.5000
2023-05-19T00:51:30.812Z,19176.3574
2023-05-19T00:52:38.815Z,19177.6426
2023-05-19T00:53:46.898Z,19178.4277
2023-05-19T00:54:54.957Z,19179.8574
2023-05-19T00:56:03.072Z,19181.0000
2023-05-19T00:57:11.210Z,19177.5000
2023-05-19T00:58:18.987Z,19181.2852
2023-05-19T00:59:27.071Z,19182.5723
2023-05-19T01:00:35.372Z,19180.7852
2023-05-19T01:01:43.625Z,19183.0000
2023-05-19T01:02:51.511Z,19179.4277
2023-05-19T01:03:59.653Z,19180.3574
2023-05-19T01:05:07.562Z,19180.5000
2023-05-19T01:06:15.794Z,19181.1426
2023-05-19T01:07:23.631Z,19177.8574
2023-05-19T01:08:31.812Z,19178.2852
2023-05-19T01:09:39.737Z,19179.7148
2023-05-19T01:10:47.820Z,19177.5000
2023-05-19T01:11:55.954Z,19182.5723
2023-05-19T01:13:03.820Z,19181.2852
2023-05-19T01:14:11.962Z,19184.2852
2023-05-19T01:15:19.958Z,19187.5723
2023-05-19T01:16:28.140Z,19188.0723
2023-05-19T01:17:36.370Z,19186.8574
2023-05-19T01:18:44.548Z,19186.7852
2023-05-19T01:19:52.469Z,19186.7852
2023-05-19T01:21:00.396Z,19187.7852
2023-05-19T01:22:08.434Z,19187.7852
2023-05-19T01:23:16.805Z,19187.9277
2023-05-19T01:24:24.710Z,19188.0723
2023-05-19T01:25:32.707Z,19191.7148
2023-05-19T01:26:40.715Z,19188.7852
2023-05-19T01:27:48.597Z,19186.7852
2023-05-19T01:28:56.678Z,19189.0000
2023-05-19T01:30:04.757Z,19187.9277
2023-05-19T01:31:13.072Z,19184.0723
2023-05-19T01:32:21.084Z,19184.8574
2023-05-19T01:33:29.232Z,19184.7148
2023-05-19T01:34:37.198Z,19180.6426
2023-05-19T01:35:45.170Z,19182.5723
2023-05-19T01:36:53.316Z,19184.1426
2023-05-19T01:38:01.493Z,19182.3574
2023-05-19T01:39:09.352Z,19180.0000
2023-05-19T01:40:17.412Z,19185.4277
2023-05-19T01:41:25.622Z,19189.0723
2023-05-19T01:42:33.453Z,19185.9277
2023-05-19T01:43:41.472Z,19185.2852
2023-05-19T01:44:49.547Z,19184.1426
2023-05-19T01:45:57.730Z,19186.8574
2023-05-19T01:47:05.704Z,19189.7148
2023-05-19T01:48:13.937Z,19193.0000
2023-05-19T01:49:22.051Z,19188.7148
2023-05-19T01:50:30.190Z,19189.6426
2023-05-19T01:51:38.068Z,19190.3574
2023-05-19T01:52:46.192Z,19190.6426
2023-05-19T01:53:54.198Z,19189.5723
2023-05-19T01:55:02.217Z,19186.2852
2023-05-19T01:56:10.335Z,19191.3574
2023-05-19T01:57:18.230Z,19187.1426
2023-05-19T01:58:26.298Z,19187.6426
2023-05-19T01:59:34.367Z,19188.2852
2023-05-19T02:00:42.536Z,19186.5723
2023-05-19T02:01:50.564Z,19187.9277
2023-05-19T02:02:58.725Z,19187.0723
2023-05-19T02:04:06.765Z,19187.1426
2023-05-19T02:05:14.975Z,19186.9277
2023-05-19T02:06:22.819Z,19189.6426
2023-05-19T02:07:30.971Z,19186.2852
2023-05-19T02:08:38.992Z,19187.2852
2023-05-19T02:09:47.051Z,19187.6426
2023-05-19T02:10:55.155Z,19185.0723
2023-05-19T02:12:03.070Z,19183.4277
2023-05-19T02:13:11.100Z,19186.0723
2023-05-19T02:14:19.168Z,19185.5000
2023-05-19T02:15:27.371Z,19184.9277
2023-05-19T02:16:35.448Z,19185.5000
2023-05-19T02:17:43.679Z,19186.7852
2023-05-19T02:18:51.622Z,19187.0723
2023-05-19T02:19:59.619Z,19184.8574
2023-05-19T02:21:07.881Z,19186.8574
2023-05-19T02:22:15.802Z,19184.2148
2023-05-19T02:23:23.813Z,19185.3574
2023-05-19T02:24:31.881Z,19189.0723
2023-05-19T02:25:39.943Z,19187.0723
2023-05-19T02:26:47.859Z,19185.8574
2023-05-19T02:27:55.980Z,19187.7852
2023-05-19T02:29:04.011Z,19189.8574
2023-05-19T02:30:12.459Z,19188.7148
2023-05-19T02:31:20.304Z,19190.3574
2023-05-19T02:32:28.351Z,19191.0723
2023-05-19T02:33:36.459Z,19192.0000
2023-05-19T02:34:44.465Z,19190.8574
2023-05-19T02:35:52.523Z,19189.6426
2023-05-19T02:37:00.728Z,19191.0000
2023-05-19T02:38:08.641Z,19193.0000
2023-05-19T02:39:16.732Z,19194.0723
2023-05-19T02:40:24.729Z,19195.8574
2023-05-19T02:41:32.693Z,19192.1426
2023-05-19T02:42:40.756Z,19194.3574
2023-05-19T02:43:48.807Z,19192.1426
2023-05-19T02:44:57.090Z,19192.4277
2023-05-19T02:46:05.118Z,19194.9277
2023-05-19T02:47:13.119Z,19192.3574
2023-05-19T02:48:21.077Z,19189.5000
2023-05-19T02:49:29.259Z,19194.6426
2023-05-19T02:50:37.343Z,19195.7852
2023-05-19T02:51:45.527Z,19196.2148
2023-05-19T02:52:53.498Z,19195.6426
2023-05-19T02:54:01.630Z,19193.4277
2023-05-19T02:55:09.559Z,19194.6426
2023-05-19T02:56:17.688Z,19193.7852
2023-05-19T02:57:25.572Z,19195.8574
2023-05-19T02:58:33.650Z,19195.8574
2023-05-19T02:59:42.102Z,19192.8574
2023-05-19T03:00:49.881Z,19195.7148
2023-05-19T03:01:58.015Z,19197.7148
2023-05-19T03:03:06.096Z,19196.3574
2023-05-19T03:04:14.082Z,19198.2852
2023-05-19T03:05:22.132Z,19199.1426
2023-05-19T03:06:30.212Z,19197.3574
2023-05-19T03:07:38.349Z,19195.7148
2023-05-19T03:08:46.306Z,19197.7148
2023-05-19T03:09:54.383Z,19198.8574
2023-05-19T03:11:02.328Z,19198.7852
2023-05-19T03:12:10.395Z,19198.6426
2023-05-19T03:13:18.446Z,19201.4277
2023-05-19T03:14:26.611Z,19202.7148
2023-05-19T03:15:34.695Z,19202.7148
2023-05-19T03:16:42.784Z,19199.8574
2023-05-19T03:17:50.933Z,19199.5000
2023-05-19T03:18:58.984Z,19202.2148
2023-05-19T03:20:06.931Z,19199.7148
2023-05-19T03:21:14.847Z,19199.1426
2023-05-19T03:22:23.010Z,19199.4277
2023-05-19T03:23:31.099Z,19200.7852
2023-05-19T03:24:39.201Z,19202.2852
2023-05-19T03:25:47.068Z,19201.2148
2023-05-19T03:26:55.160Z,19202.4277
2023-05-19T03:28:03.173Z,19201.7852
2023-05-19T03:29:11.476Z,19203.0000
2023-05-19T03:30:19.461Z,19204.0000
2023-05-19T03:31:27.504Z,19205.2852
2023-05-19T03:32:35.604Z,19204.9277
2023-05-19T03:33:43.853Z,19204.2148
2023-05-19T03:34:51.800Z,19206.7148
2023-05-19T03:35:59.786Z,19205.2148
2023-05-19T03:37:07.860Z,19206.5000
2023-05-19T03:38:15.871Z,19208.6426
2023-05-19T03:39:23.914Z,19208.8574
2023-05-19T03:40:32.136Z,19205.4277
2023-05-19T03:41:39.934Z,19207.2148
2023-05-19T03:42:47.963Z,19206.4277
2023-05-19T03:43:56.190Z,19208.2852
2023-05-19T03:45:04.226Z,19207.3574
2023-05-19T03:46:12.334Z,19205.3574
2023-05-19T03:47:20.452Z,19208.7148
2023-05-19T03:48:28.390Z,19208.0000
2023-05-19T03:49:36.442Z,19206.7148
2023-05-19T03:50:44.837Z,19205.3574
2023-05-19T03:51:52.637Z,19207.8574
2023-05-19T03:53:00.679Z,19206.3574
2023-05-19T03:54:08.672Z,19207.0723
2023-05-19T03:55:16.634Z,19206.0723
2023-05-19T03:56:24.678Z,19207.8574
2023-05-19T03:57:32.774Z,19208.6426
2023-05-19T03:58:40.969Z,19207.5000
2023-05-19T03:59:49.011Z,19206.0000
2023-05-19T04:00:57.054Z,19205.0723
2023-05-19T04:02:05.586Z,19205.5723
2023-05-19T04:03:13.265Z,19202.5000
2023-05-19T04:04:21.274Z,19204.0723
2023-05-19T04:05:29.301Z,19204.2852
2023-05-19T04:06:37.331Z,19201.0000
2023-05-19T04:07:45.623Z,19204.0723
2023-05-19T04:08:53.501Z,19202.6426
2023-05-19T04:10:01.423Z,19202.0723
2023-05-19T04:11:09.468Z,19203.8574
2023-05-19T04:12:17.552Z,19204.9277
2023-05-19T04:13:25.943Z,19204.2148
2023-05-19T04:14:33.829Z,19204.4277
2023-05-19T04:15:41.918Z,19208.4277
2023-05-19T04:16:49.905Z,19203.6426
2023-05-19T04:17:58.015Z,19205.7852
2023-05-19T04:19:06.149Z,19204.8574
2023-05-19T04:20:14.223Z,19203.5723
2023-05-19T04:21:22.153Z,19205.8574
2023-05-19T04:22:30.205Z,19206.5723
2023-05-19T04:23:38.477Z,19202.6426
2023-05-19T04:24:46.253Z,19201.5723
2023-05-19T04:25:54.330Z,19201.9277
2023-05-19T04:27:02.374Z,19200.7148
2023-05-19T04:28:10.527Z,19203.8574
2023-05-19T04:29:18.791Z,19200.7148
2023-05-19T04:30:26.767Z,19199.0723
2023-05-19T04:31:34.999Z,19199.2852
2023-05-19T04:32:42.845Z,19198.7852
2023-05-19T04:33:50.924Z,19197.6426
2023-05-19T04:34:58.961Z,19194.9277
2023-05-19T04:36:07.003Z,19191.0723
2023-05-19T04:37:15.146Z,19187.2852
2023-05-19T04:38:23.157Z,19183.5723
2023-05-19T04:39:31.070Z,19180.2148
2023-05-19T04:40:39.158Z,19177.3574
2023-05-19T04:41:47.242Z,19176.7852
2023-05-19T04:42:55.411Z,19177.0000
2023-05-19T04:44:03.457Z,19176.1426
2023-05-19T04:45:11.565Z,19174.5723
2023-05-19T04:46:19.600Z,19176.5723
2023-05-19T04:47:27.895Z,19175.2852
2023-05-19T04:48:35.745Z,19177.0723
2023-05-19T04:49:43.832Z,19177.7148
2023-05-19T04:50:51.965Z,19176.2148
2023-05-19T04:51:59.926Z,19177.5000
2023-05-19T04:53:08.037Z,19175.2148
2023-05-19T04:54:15.902Z,19174.5723
2023-05-19T04:55:23.966Z,19174.5000
2023-05-19T04:56:32.024Z,19174.1426
2023-05-19T04:57:40.245Z,19177.5723
2023-05-19T04:58:48.317Z,19176.0723
2023-05-19T04:59:56.578Z,19171.8574
2023-05-19T05:01:04.380Z,19171.7852
2023-05-19T05:02:12.607Z,19169.6426
2023-05-19T05:03:20.695Z,19168.4277
2023-05-19T05:04:28.617Z,19166.7852
2023-05-19T05:05:36.769Z,19169.5000
2023-05-19T05:06:44.689Z,19169.9277
2023-05-19T05:07:52.811Z,19167.0000
2023-05-19T05:09:00.699Z,19164.7148
2023-05-19T05:10:08.780Z,19164.2852
2023-05-19T05:11:16.815Z,19167.9277
2023-05-19T05:12:25.000Z,19168.5723
2023-05-19T05:13:33.082Z,19162.0000
2023-05-19T05:14:41.145Z,19162.9277
2023-05-19T05:15:49.210Z,19164.0000
2023-05-19T05:16:57.385Z,19162.7852
2023-05-19T05:18:05.381Z,19163.2852
2023-05-19T05:19:13.595Z,19160.2852
2023-05-19T05:20:21.528Z,19160.1426
2023-05-19T05:21:29.503Z,19161.0000
2023-05-19T05:22:37.555Z,19158.2852
2023-05-19T05:23:45.519Z,19157.9277
2023-05-19T05:24:53.554Z,19162.6426
2023-05-19T05:26:01.614Z,19158.9277
2023-05-19T05:27:10.095Z,19157.8574
2023-05-19T05:28:17.929Z,19156.9277
2023-05-19T05:29:25.986Z,19156.7148
2023-05-19T05:30:33.957Z,19158.0723
2023-05-19T05:31:42.094Z,19160.0000
2023-05-19T05:32:50.211Z,19163.0000
2023-05-19T05:33:58.217Z,19160.5000
2023-05-19T05:35:06.240Z,19161.2852
2023-05-19T05:36:14.434Z,19162.7852
2023-05-19T05:37:22.371Z,19158.2148
2023-05-19T05:38:30.304Z,19166.0000
2023-05-19T05:39:38.365Z,19163.4277
2023-05-19T05:40:46.395Z,19163.2148
2023-05-19T05:41:54.616Z,19162.9277
2023-05-19T05:43:02.641Z,19161.5000
2023-05-19T05:44:10.700Z,19163.3574
2023-05-19T05:45:18.816Z,19163.5000
2023-05-19T05:46:27.076Z,19165.8574
2023-05-19T05:47:34.913Z,19172.3574
2023-05-19T05:48:43.035Z,19167.5723
2023-05-19T05:49:52.995Z,19167.4277
2023-05-19T05:51:03.929Z,19163.1992
2023-05-19T05:52:11.836Z,19161.9277
2023-05-19T05:53:19.940Z,19162.9277
2023-05-19T05:54:28.014Z,19167.0000
2023-05-19T05:55:36.185Z,19171.7148
2023-05-19T05:56:44.239Z,19168.4277
2023-05-19T05:57:52.305Z,19170.4277
2023-05-19T05:59:00.414Z,19170.0723
2023-05-19T06:00:08.574Z,19169.2148
2023-05-19T06:01:16.506Z,19170.1426
2023-05-19T06:02:24.579Z,19169.6426
2023-05-19T06:03:32.708Z,19171.0000
2023-05-19T06:04:40.769Z,19170.5723
2023-05-19T06:05:48.777Z,19168.0723
2023-05-19T06:06:56.638Z,19169.2852
2023-05-19T06:08:04.780Z,19172.8574
2023-05-19T06:09:12.820Z,19170.3574
2023-05-19T06:10:20.942Z,19168.8574
2023-05-19T06:11:29.040Z,19168.0000
2023-05-19T06:12:37.100Z,19168.4277
2023-05-19T06:13:45.337Z,19165.7852
2023-05-19T06:14:53.197Z,19164.6426
2023-05-19T06:16:02.244Z,19165.4277
2023-05-19T06:17:09.329Z,19168.7852
2023-05-19T06:18:17.448Z,19170.0723
2023-05-19T06:19:25.640Z,19173.7852
2023-05-19T06:20:33.567Z,19177.8574
2023-05-19T06:21:41.415Z,19181.3574
2023-05-19T06:22:49.511Z,19181.7148
2023-05-19T06:23:57.730Z,19179.8574
2023-05-19T06:25:05.921Z,19185.0723
2023-05-19T06:26:13.803Z,19182.5723
2023-05-19T06:27:21.831Z,19184.2852
2023-05-19T06:28:29.967Z,19184.7852
2023-05-19T06:29:38.079Z,19182.3574
2023-05-19T06:30:46.052Z,19177.6426
2023-05-19T06:31:54.250Z,19178.5723
2023-05-19T06:33:02.177Z,19183.3574
2023-05-19T06:34:10.251Z,19182.5723
2023-05-19T06:35:18.193Z,19180.2148
2023-05-19T06:36:26.225Z,19179.6426
2023-05-19T06:37:34.301Z,19178.0723
2023-05-19T06:38:42.467Z,19174.8574
2023-05-19T06:39:50.505Z,19176.5000
2023-05-19T06:40:58.830Z,19175.2852
2023-05-19T06:42:06.671Z,19180.5723
2023-05-19T06:43:14.705Z,19179.4277
2023-05-19T06:44:22.752Z,19181.5000
2023-05-19T06:45:30.790Z,19182.5723
2023-05-19T06:46:39.204Z,19179.5000
2023-05-19T06:47:46.982Z,19178.8574
2023-05-19T06:48:55.170Z,19176.6426
2023-05-19T06:50:02.969Z,19184.0723
2023-05-19T06:51:11.027Z,19183.8574
2023-05-19T06:52:19.104Z,19182.6426
2023-05-19T06:53:27.276Z,19183.4277
2023-05-19T06:54:35.344Z,19183.9277
2023-05-19T06:55:57.540Z,19183.7148
2023-05-19T06:56:56.528Z,19177.4668
2023-05-19T06:58:04.394Z,19187.3574
2023-05-19T06:59:12.448Z,19186.5000
2023-05-19T07:00:22.894Z,19183.1426
2023-05-19T07:01:33.643Z,19183.5332
2023-05-19T07:02:41.660Z,19182.3574
2023-05-19T07:03:49.488Z,19179.6426
2023-05-19T07:04:57.486Z,19182.4277
2023-05-19T07:06:07.931Z,19186.8574
2023-05-19T07:07:18.544Z,19186.0664
2023-05-19T07:08:26.679Z,19185.0723
2023-05-19T07:09:34.932Z,19180.7852
2023-05-19T07:10:42.819Z,19174.7852
2023-05-19T07:11:50.851Z,19175.7852
2023-05-19T07:12:59.040Z,19173.8574
2023-05-19T07:14:06.900Z,19177.8574
2023-05-19T07:15:14.927Z,19178.2148
2023-05-19T07:16:23.037Z,19180.0000
2023-05-19T07:17:31.040Z,19175.5723
2023-05-19T07:18:39.145Z,19172.3574
2023-05-19T07:19:47.221Z,19166.0723
2023-05-19T07:20:55.214Z,19163.1426
2023-05-19T07:22:03.470Z,19169.2852
2023-05-19T07:23:11.477Z,19172.2148
2023-05-19T07:24:19.469Z,19171.3574
2023-05-19T07:25:27.552Z,19169.4277
2023-05-19T07:26:35.642Z,19167.1426
2023-05-19T07:27:43.768Z,19166.0723
2023-05-19T07:28:51.712Z,19164.3574
2023-05-19T07:29:59.812Z,19158.5723
2023-05-19T07:31:07.753Z,19157.7852
2023-05-19T07:32:15.876Z,19154.2852
2023-05-19T07:33:23.925Z,19150.1426
2023-05-19T07:34:32.074Z,19149.5723
2023-05-19T07:35:40.147Z,19150.1426
2023-05-19T07:36:48.182Z,19149.5723
2023-05-19T07:37:56.352Z,19141.5000
2023-05-19T07:39:04.344Z,19141.5000
2023-05-19T07:40:12.372Z,19143.7852
2023-05-19T07:41:20.387Z,19147.2852
2023-05-19T07:42:28.545Z,19146.7148
2023-05-19T07:43:36.598Z,19150.5723
2023-05-19T07:44:44.809Z,19150.9277
2023-05-19T07:45:52.776Z,19145.4277
2023-05-19T07:47:00.687Z,19150.2148
2023-05-19T07:48:08.987Z,19143.2852
2023-05-19T07:49:16.726Z,19146.9277
2023-05-19T07:50:24.792Z,19147.2148
2023-05-19T07:51:32.868Z,19147.5000
2023-05-19T07:52:41.151Z,19141.3574
2023-05-19T07:53:49.154Z,19138.2148
2023-05-19T07:54:57.144Z,19133.0723
2023-05-19T07:56:05.391Z,19132.0000
2023-05-19T07:57:13.376Z,19131.2148
2023-05-19T07:58:21.337Z,19128.2852
2023-05-19T07:59:29.386Z,19126.6426
2023-05-19T08:00:37.540Z,19123.5723
2023-05-19T08:01:45.519Z,19122.6426
2023-05-19T08:02:53.674Z,19125.7148
2023-05-19T08:04:01.580Z,19123.5723
2023-05-19T08:05:09.573Z,19117.3574
2023-05-19T08:06:17.674Z,19117.8574
2023-05-19T08:07:26.023Z,19116.7148
2023-05-19T08:08:34.084Z,19117.7852
2023-05-19T08:09:41.946Z,19117.7148
2023-05-19T08:10:50.058Z,19119.6426
2023-05-19T08:11:58.193Z,19120.4277
2023-05-19T08:13:06.102Z,19118.5723
2023-05-19T08:14:14.173Z,19123.9277
2023-05-19T08:15:22.308Z,19126.0000
2023-05-19T08:16:30.635Z,19135.5723
2023-05-19T08:17:38.319Z,19140.0723
2023-05-19T08:18:46.387Z,19142.0000
2023-05-19T08:19:54.332Z,19139.1426
2023-05-19T08:21:02.541Z,19136.5723
2023-05-19T08:22:10.615Z,19134.5000
2023-05-19T08:23:18.685Z,19136.0000
2023-05-19T08:24:26.792Z,19136.2148
2023-05-19T08:25:34.812Z,19133.7852
2023-05-19T08:26:42.879Z,19139.5000
2023-05-19T08:27:51.089Z,19140.9277
2023-05-19T08:28:59.029Z,19140.0723
2023-05-19T08:30:07.024Z,19141.0000
2023-05-19T08:31:15.247Z,19137.5000
2023-05-19T08:32:23.099Z,19142.5723
2023-05-19T08:33:31.083Z,19146.4277
2023-05-19T08:34:39.139Z,19144.2148
2023-05-19T08:35:47.489Z,19141.4277
2023-05-19T08:36:55.546Z,19141.0723
2023-05-19T08:38:03.453Z,19143.7852
2023-05-19T08:39:11.591Z,19144.0000
2023-05-19T08:40:19.656Z,19143.7148
2023-05-19T08:41:27.820Z,19145.5000
2023-05-19T08:42:35.767Z,19145.2852
2023-05-19T08:43:43.831Z,19147.5723
2023-05-19T08:44:52.187Z,19148.0000
2023-05-19T08:45:59.896Z,19141.2148
2023-05-19T08:47:08.021Z,19139.7148
2023-05-19T08:48:16.003Z,19134.5723
2023-05-19T08:49:25.570Z,19133.0723
2023-05-19T08:50:32.506Z,19136.4277
2023-05-19T08:51:40.155Z,19132.9277
2023-05-19T08:52:51.796Z,19133.2852
2023-05-19T08:54:01.288Z,19128.1992
2023-05-19T08:55:09.340Z,19124.2852
2023-05-19T08:56:17.331Z,19119.2852
2023-05-19T08:57:25.475Z,19117.4277
2023-05-19T08:58:33.515Z,19116.2148
2023-05-19T08:59:41.402Z,19120.7148
2023-05-19T09:00:49.517Z,19118.5000
2023-05-19T09:01:57.578Z,19116.2852
2023-05-19T09:04:13.911Z,19112.4277
2023-05-19T09:05:21.914Z,19114.5723
2023-05-19T09:06:29.921Z,19116.2852
2023-05-19T09:07:38.072Z,19114.7852
2023-05-19T09:08:45.998Z,19107.8574
2023-05-19T09:09:54.349Z,19115.1426
2023-05-19T09:11:02.171Z,19116.0723
2023-05-19T09:12:10.291Z,19117.2852
2023-05-19T09:13:18.255Z,19117.0723
2023-05-19T09:14:26.216Z,19117.3574
2023-05-19T09:15:34.602Z,19116.5723
2023-05-19T09:16:42.389Z,19118.2148
2023-05-19T09:17:50.640Z,19114.7148
2023-05-19T09:18:58.621Z,19115.0000
2023-05-19T09:20:06.680Z,19122.0000
2023-05-19T09:21:14.716Z,19126.5000
2023-05-19T09:22:22.836Z,19126.1426
2023-05-19T09:23:30.819Z,19127.0000
2023-05-19T09:24:38.863Z,19122.0000
2023-05-19T09:25:46.981Z,19126.8574
2023-05-19T09:26:55.756Z,19125.8574
2023-05-19T09:28:07.868Z,19122.3340
2023-05-19T09:29:15.853Z,19124.0000
2023-05-19T09:30:23.885Z,19123.2852
2023-05-19T09:31:32.161Z,19123.9277
2023-05-19T09:32:40.165Z,19127.5723
2023-05-19T09:33:48.281Z,19123.2148
2023-05-19T09:34:56.529Z,19122.5000
2023-05-19T09:36:04.320Z,19126.2148
2023-05-19T09:37:12.370Z,19127.2852
2023-05-19T09:38:20.564Z,19126.2852
2023-05-19T09:39:28.553Z,19122.0000
2023-05-19T09:40:36.607Z,19121.7148
2023-05-19T09:41:44.667Z,19119.0000
2023-05-19T09:42:52.572Z,19118.9277
2023-05-19T09:44:00.678Z,19114.5000
2023-05-19T09:45:08.678Z,19115.5000
2023-05-19T09:46:16.885Z,19111.2852
2023-05-19T09:47:24.903Z,19113.8574
2023-05-19T09:48:32.991Z,19110.7852
2023-05-19T09:49:41.279Z,19110.6426
2023-05-19T09:50:49.260Z,19113.6426
2023-05-19T09:51:57.195Z,19110.6426
2023-05-19T09:53:05.261Z,19113.6426
2023-05-19T09:54:13.385Z,19115.1426
2023-05-19T09:55:21.358Z,19112.5723
2023-05-19T09:56:29.442Z,19110.2852
2023-05-19T09:57:37.358Z,19111.2852
2023-05-19T09:58:45.414Z,19108.5000
2023-05-19T09:59:53.487Z,19109.2852
2023-05-19T10:01:01.631Z,19103.1426
2023-05-19T10:02:09.760Z,19098.0723
2023-05-19T10:03:17.828Z,19104.8574
2023-05-19T10:04:25.922Z,19107.5723
2023-05-19T10:05:34.320Z,19107.4277
2023-05-19T10:06:42.296Z,19111.4277
2023-05-19T10:07:50.044Z,19109.5723
2023-05-19T10:08:58.157Z,19108.3574
2023-05-19T10:10:06.175Z,19106.3574
2023-05-19T10:11:14.209Z,19103.6426
2023-05-19T10:12:22.159Z,19093.8574
2023-05-19T10:13:30.232Z,19093.1426
2023-05-19T10:14:38.275Z,19097.4277
2023-05-19T10:15:57.327Z,19097.2148
2023-05-19T10:16:59.481Z,19097.6660
2023-05-19T10:18:07.545Z,19095.1426
2023-05-19T10:19:15.548Z,19090.0723
2023-05-19T10:20:23.573Z,19091.0723
2023-05-19T10:21:31.667Z,19093.5000
2023-05-19T10:22:39.753Z,19096.7852
2023-05-19T10:23:47.895Z,19098.3574
2023-05-19T10:24:55.820Z,19096.7148
2023-05-19T10:26:03.754Z,19097.7852
2023-05-19T10:27:11.834Z,19099.2852
2023-05-19T10:28:19.921Z,19097.2148
2023-05-19T10:29:28.129Z,19094.3574
2023-05-19T10:30:36.110Z,19089.2852
2023-05-19T10:31:44.338Z,19090.5000
2023-05-19T10:32:52.308Z,19091.7852
2023-05-19T10:34:00.398Z,19090.0000
2023-05-19T10:35:08.460Z,19092.3574
2023-05-19T10:36:16.535Z,19092.9277
2023-05-19T10:37:24.538Z,19090.0000
2023-05-19T10:38:32.543Z,19084.7148
2023-05-19T10:39:40.657Z,19084.9277
2023-05-19T10:40:48.543Z,19086.7148
2023-05-19T10:41:56.629Z,19086.9277
2023-05-19T10:43:04.672Z,19084.8574
2023-05-19T10:44:12.916Z,19090.9277
2023-05-19T10:45:21.127Z,19090.1426
2023-05-19T10:46:28.959Z,19088.5723
2023-05-19T10:47:37.046Z,19088.8574
2023-05-19T10:48:45.125Z,19091.5723
2023-05-19T10:49:53.344Z,19097.8574
2023-05-19T10:51:01.272Z,19100.5723
2023-05-19T10:52:09.369Z,19097.2852
2023-05-19T10:53:17.349Z,19091.2852
2023-05-19T10:54:25.689Z,19093.7852
2023-05-19T10:55:33.525Z,19095.4277
2023-05-19T10:56:41.443Z,19091.6426
2023-05-19T10:57:49.510Z,19089.5723
2023-05-19T10:58:57.644Z,19089.2148
2023-05-19T11:00:05.692Z,19089.4277
2023-05-19T11:01:13.837Z,19087.3574
2023-05-19T11:02:21.807Z,19087.5723
2023-05-19T11:04:37.913Z,19082.2148
2023-05-19T11:05:46.011Z,19074.2148
2023-05-19T11:06:54.117Z,19073.8574
2023-05-19T11:08:02.201Z,19069.8574
2023-05-19T11:09:10.160Z,19070.4277
2023-05-19T11:10:18.133Z,19070.6426
2023-05-19T11:11:26.202Z,19070.2148
2023-05-19T11:12:34.210Z,19067.0000
2023-05-19T11:13:42.405Z,19065.7148
2023-05-19T11:14:50.451Z,19065.2148
2023-05-19T11:15:58.562Z,19066.2148
2023-05-19T11:17:06.728Z,19070.5723
2023-05-19T11:18:14.703Z,19069.5723
2023-05-19T11:19:22.886Z,19068.2148
2023-05-19T11:20:30.794Z,19070.9277
2023-05-19T11:21:38.962Z,19073.6426
2023-05-19T11:22:46.892Z,19067.4277
2023-05-19T11:23:55.121Z,19068.5723
2023-05-19T11:25:02.865Z,19067.5723
2023-05-19T11:26:10.961Z,19064.5000
2023-05-19T11:27:19.109Z,19068.2852
2023-05-19T11:28:27.277Z,19070.0723
2023-05-19T11:29:35.245Z,19069.3574
2023-05-19T11:30:43.347Z,19074.2852
2023-05-19T11:31:51.555Z,19076.2148
2023-05-19T11:32:59.442Z,19074.9277
2023-05-19T11:34:07.503Z,19072.5723
2023-05-19T11:35:15.668Z,19071.5723
2023-05-19T11:36:23.630Z,19079.4277
2023-05-19T11:37:31.675Z,19086.0723
2023-05-19T11:38:39.690Z,19087.2148
2023-05-19T11:39:47.689Z,19086.3574
2023-05-19T11:40:55.749Z,19083.0000
2023-05-19T11:42:03.824Z,19084.7852
2023-05-19T11:43:11.915Z,19082.5723
2023-05-19T11:44:20.007Z,19073.7852
2023-05-19T11:45:28.079Z,19069.2852
2023-05-19T11:46:36.472Z,19062.0723
2023-05-19T11:48:00.827Z,19065.2852
2023-05-19T11:48:57.393Z,19060.5332
2023-05-19T11:50:05.215Z,19053.1426
2023-05-19T11:51:13.335Z,19046.5000
2023-05-19T11:52:21.383Z,19039.8574
2023-05-19T11:53:29.246Z,19035.3574
2023-05-19T11:54:37.332Z,19029.5723
2023-05-19T11:55:45.803Z,19027.3574
2023-05-19T11:56:53.713Z,19023.6426
2023-05-19T11:58:04.649Z,19021.6426
2023-05-19T11:59:14.546Z,19016.8008
2023-05-19T12:00:22.573Z,19011.3574
2023-05-19T12:01:30.637Z,19008.7852
2023-05-19T12:02:38.864Z,18999.2148
2023-05-19T12:03:46.922Z,18994.1426
2023-05-19T12:04:54.963Z,18988.7148
2023-05-19T12:06:02.961Z,18989.6426
2023-05-19T12:07:10.847Z,18992.0723
2023-05-19T12:08:18.997Z,18987.6426
2023-05-19T12:09:27.030Z,18987.5723
2023-05-19T12:10:35.133Z,18989.2852
2023-05-19T12:11:43.207Z,18988.6426
2023-05-19T12:12:51.226Z,18986.7852
2023-05-19T12:13:59.325Z,18997.9277
2023-05-19T12:15:07.347Z,18997.7148
2023-05-19T12:16:15.522Z,18998.2852
2023-05-19T12:17:23.602Z,18999.8574
2023-05-19T12:18:31.520Z,18999.1426
2023-05-19T12:19:39.593Z,19000.7852
2023-05-19T12:20:47.776Z,19003.2148
2023-05-19T12:21:55.675Z,19005.6426
2023-05-19T12:23:03.850Z,19004.5723
2023-05-19T12:24:11.812Z,19006.6426
2023-05-19T12:25:19.857Z,19002.8574
2023-05-19T12:26:28.049Z,18997.2148
2023-05-19T12:27:35.971Z,18996.2852
2023-05-19T12:28:44.156Z,18997.0723
2023-05-19T12:29:52.170Z,18999.3574
2023-05-19T12:31:00.332Z,18996.4277
2023-05-19T12:32:08.425Z,18984.7148
2023-05-19T12:33:16.468Z,18982.8574
2023-05-19T12:34:24.417Z,18972.2148
2023-05-19T12:35:32.488Z,18970.5723
2023-05-19T12:36:40.494Z,18968.8574
2023-05-19T12:37:48.524Z,18966.2852